createdAt,value
2017-08-25T00:00:30.341Z,1011.24
2017-08-25T00:01:42.731Z,1011.26
2017-08-25T00:02:55.000Z,1011.26
2017-08-25T00:04:07.284Z,1011.27
2017-08-25T00:05:19.211Z,1011.23
2017-08-25T00:06:31.952Z,1011.25
2017-08-25T00:07:44.552Z,1011.27
2017-08-25T00:08:57.144Z,1011.27
2017-08-25T00:10:09.721Z,1011.35
2017-08-25T00:11:21.965Z,1011.32
2017-08-25T00:12:34.223Z,1011.29
2017-08-25T00:13:46.857Z,1011.24
2017-08-25T00:14:59.129Z,1011.28
2017-08-25T00:16:11.416Z,1011.29
2017-08-25T00:17:23.427Z,1011.31
2017-08-25T00:18:36.059Z,1011.32
2017-08-25T00:19:48.679Z,1011.32
2017-08-25T00:21:00.343Z,1011.35
2017-08-25T00:22:12.903Z,1011.29
2017-08-25T00:23:25.216Z,1011.35
2017-08-25T00:24:37.804Z,1011.3
2017-08-25T00:25:50.422Z,1011.33
2017-08-25T00:27:03.039Z,1011.3
2017-08-25T00:28:15.375Z,1011.31
2017-08-25T00:29:28.020Z,1011.26
2017-08-25T00:30:40.592Z,1011.24
2017-08-25T00:31:53.190Z,1011.24
2017-08-25T00:33:05.496Z,1011.23
2017-08-25T00:34:17.777Z,1011.19
2017-08-25T00:35:30.028Z,1011.2
2017-08-25T00:36:42.636Z,1011.21
2017-08-25T00:37:55.477Z,1011.23
2017-08-25T00:39:07.793Z,1011.2
2017-08-25T00:40:19.816Z,1011.21
2017-08-25T00:41:31.758Z,1011.24
2017-08-25T00:42:44.346Z,1011.25
2017-08-25T00:43:56.924Z,1011.3
2017-08-25T00:45:09.219Z,1011.34
2017-08-25T00:46:21.809Z,1011.39
2017-08-25T00:47:34.316Z,1011.37
2017-08-25T00:48:46.957Z,1011.4
2017-08-25T00:49:59.235Z,1011.43
2017-08-25T00:51:11.872Z,1011.39
2017-08-25T00:52:24.137Z,1011.42
2017-08-25T00:53:36.414Z,1011.42
2017-08-25T00:54:48.727Z,1011.46
2017-08-25T00:56:01.351Z,1011.44
2017-08-25T00:57:13.894Z,1011.46
2017-08-25T00:58:26.466Z,1011.47
2017-08-25T00:59:38.991Z,1011.46
2017-08-25T01:00:51.507Z,1011.48
2017-08-25T01:02:04.119Z,1011.46
2017-08-25T01:03:16.672Z,1011.48
2017-08-25T01:04:29.230Z,1011.51
2017-08-25T01:05:41.845Z,1011.53
2017-08-25T01:06:54.359Z,1011.57
2017-08-25T01:08:06.981Z,1011.55
2017-08-25T01:09:19.269Z,1011.59
2017-08-25T01:10:31.202Z,1011.59
2017-08-25T01:11:43.516Z,1011.6
2017-08-25T01:12:56.124Z,1011.6
2017-08-25T01:14:08.746Z,1011.61
2017-08-25T01:15:21.329Z,1011.6
2017-08-25T01:16:33.925Z,1011.65
2017-08-25T01:17:46.149Z,1011.61
2017-08-25T01:18:58.402Z,1011.62
2017-08-25T01:20:10.988Z,1011.65
2017-08-25T01:21:23.613Z,1011.64
2017-08-25T01:22:35.887Z,1011.63
2017-08-25T01:23:48.509Z,1011.65
2017-08-25T01:25:00.755Z,1011.64
2017-08-25T01:26:13.366Z,1011.64
2017-08-25T01:27:25.953Z,1011.62
2017-08-25T01:28:38.223Z,1011.62
2017-08-25T01:29:50.830Z,1011.59
2017-08-25T01:31:03.090Z,1011.6
2017-08-25T01:32:15.983Z,1011.62
2017-08-25T01:33:28.304Z,1011.57
2017-08-25T01:34:40.265Z,1011.56
2017-08-25T01:35:52.806Z,1011.57
2017-08-25T01:37:05.026Z,1011.56
2017-08-25T01:38:17.620Z,1011.54
2017-08-25T01:39:29.896Z,1011.55
2017-08-25T01:40:42.714Z,1011.54
2017-08-25T01:41:54.969Z,1011.54
2017-08-25T01:43:06.935Z,1011.54
2017-08-25T01:44:19.204Z,1011.54
2017-08-25T01:45:31.549Z,1011.53
2017-08-25T01:46:44.148Z,1011.51
2017-08-25T01:47:56.137Z,1011.53
2017-08-25T01:49:08.925Z,1011.54
2017-08-25T01:50:21.235Z,1011.48
2017-08-25T01:51:33.830Z,1011.5
2017-08-25T01:52:46.368Z,1011.49
2017-08-25T01:53:58.945Z,1011.52
2017-08-25T01:55:11.496Z,1011.55
2017-08-25T01:56:23.781Z,1011.56
2017-08-25T01:57:36.106Z,1011.58
2017-08-25T01:58:48.728Z,1011.57
2017-08-25T02:00:01.324Z,1011.59
2017-08-25T02:01:13.869Z,1011.59
2017-08-25T02:02:25.866Z,1011.58
2017-08-25T02:03:38.441Z,1011.57
2017-08-25T02:04:51.351Z,1011.6
2017-08-25T02:06:33.195Z,1011.61
2017-08-25T02:07:45.855Z,1011.57
2017-08-25T02:08:58.209Z,1011.54
2017-08-25T02:10:10.846Z,1011.57
2017-08-25T02:11:23.394Z,1011.58
2017-08-25T02:12:35.973Z,1011.57
2017-08-25T02:13:48.544Z,1011.56
2017-08-25T02:15:01.414Z,1011.58
2017-08-25T02:16:14.009Z,1011.58
2017-08-25T02:17:26.231Z,1011.6
2017-08-25T02:18:38.804Z,1011.6
2017-08-25T02:19:51.399Z,1011.6
2017-08-25T02:21:04.070Z,1011.62
2017-08-25T02:22:16.619Z,1011.63
2017-08-25T02:23:28.934Z,1011.66
2017-08-25T02:24:41.497Z,1011.62
2017-08-25T02:25:53.773Z,1011.58
2017-08-25T02:27:06.371Z,1011.58
2017-08-25T02:28:18.648Z,1011.59
2017-08-25T02:29:30.904Z,1011.62
2017-08-25T02:30:43.499Z,1011.63
2017-08-25T02:31:56.354Z,1011.63
2017-08-25T02:33:08.647Z,1011.65
2017-08-25T02:34:20.901Z,1011.63
2017-08-25T02:35:33.696Z,1011.61
2017-08-25T02:37:00.874Z,1011.62
2017-08-25T02:38:13.455Z,1011.66
2017-08-25T02:39:26.018Z,1011.62
2017-08-25T02:40:38.563Z,1011.65
2017-08-25T02:41:50.797Z,1011.62
2017-08-25T02:43:03.091Z,1011.67
2017-08-25T02:44:15.759Z,1011.67
2017-08-25T02:45:28.196Z,1011.65
2017-08-25T02:46:41.004Z,1011.67
2017-08-25T02:47:53.207Z,1011.64
2017-08-25T02:49:05.166Z,1011.66
2017-08-25T02:50:17.423Z,1011.65
2017-08-25T02:51:30.067Z,1011.66
2017-08-25T02:52:42.629Z,1011.59
2017-08-25T02:53:55.222Z,1011.62
2017-08-25T02:55:07.751Z,1011.64
2017-08-25T02:56:20.014Z,1011.62
2017-08-25T02:57:32.611Z,1011.6
2017-08-25T02:58:45.162Z,1011.59
2017-08-25T02:59:57.401Z,1011.56
2017-08-25T03:01:10.026Z,1011.57
2017-08-25T03:02:22.243Z,1011.57
2017-08-25T03:03:34.838Z,1011.57
2017-08-25T03:04:47.416Z,1011.56
2017-08-25T03:05:59.690Z,1011.46
2017-08-25T03:07:11.718Z,1011.55
2017-08-25T03:08:24.028Z,1011.55
2017-08-25T03:09:36.548Z,1011.48
2017-08-25T03:10:49.156Z,1011.51
2017-08-25T03:12:01.409Z,1011.52
2017-08-25T03:13:13.092Z,1011.55
2017-08-25T03:14:25.036Z,1011.57
2017-08-25T03:15:37.601Z,1011.53
2017-08-25T03:16:50.159Z,1011.54
2017-08-25T03:18:02.385Z,1011.52
2017-08-25T03:19:14.345Z,1011.55
2017-08-25T03:20:27.006Z,1011.51
2017-08-25T03:21:39.255Z,1011.51
2017-08-25T03:23:06.470Z,1011.51
2017-08-25T03:24:18.731Z,1011.52
2017-08-25T03:25:30.952Z,1011.48
2017-08-25T03:28:10.725Z,1011.52
2017-08-25T03:29:23.021Z,1011.49
2017-08-25T03:30:35.567Z,1011.53
2017-08-25T03:31:48.148Z,1011.53
2017-08-25T03:33:00.739Z,1011.54
2017-08-25T03:34:13.370Z,1011.56
2017-08-25T03:35:25.549Z,1011.56
2017-08-25T03:36:52.436Z,1011.61
2017-08-25T03:38:04.424Z,1011.63
2017-08-25T03:39:16.634Z,1011.59
2017-08-25T03:40:28.922Z,1011.64
2017-08-25T03:41:41.219Z,1011.68
2017-08-25T03:42:53.475Z,1011.66
2017-08-25T03:44:06.099Z,1011.65
2017-08-25T03:45:18.338Z,1011.67
2017-08-25T03:46:30.915Z,1011.69
2017-08-25T03:47:42.907Z,1011.69
2017-08-25T03:48:55.325Z,1011.69
2017-08-25T03:50:07.795Z,1011.7
2017-08-25T03:53:02.302Z,1011.71
2017-08-25T03:54:14.868Z,1011.74
2017-08-25T03:55:27.454Z,1011.73
2017-08-25T03:56:39.697Z,1011.75
2017-08-25T03:57:51.909Z,1011.77
2017-08-25T03:59:04.164Z,1011.79
2017-08-25T04:00:16.419Z,1011.79
2017-08-25T04:01:28.780Z,1011.78
2017-08-25T04:02:41.081Z,1011.76
2017-08-25T04:03:53.772Z,1011.77
2017-08-25T04:05:06.392Z,1011.77
2017-08-25T04:06:18.337Z,1011.75
2017-08-25T04:07:31.090Z,1011.74
2017-08-25T04:08:43.657Z,1011.74
2017-08-25T04:09:55.881Z,1011.71
2017-08-25T04:11:07.260Z,1011.75
2017-08-25T04:12:19.578Z,1011.73
2017-08-25T04:13:32.204Z,1011.74
2017-08-25T04:14:44.808Z,1011.77
2017-08-25T04:15:57.104Z,1011.73
2017-08-25T04:17:09.605Z,1011.74
2017-08-25T04:18:22.255Z,1011.7
2017-08-25T04:19:34.895Z,1011.73
2017-08-25T04:20:47.463Z,1011.76
2017-08-25T04:21:59.722Z,1011.74
2017-08-25T04:23:11.398Z,1011.71
2017-08-25T04:24:23.871Z,1011.65
2017-08-25T04:25:36.142Z,1011.67
2017-08-25T04:26:48.700Z,1011.66
2017-08-25T04:28:01.308Z,1011.69
2017-08-25T04:29:13.881Z,1011.66
2017-08-25T04:30:26.522Z,1011.7
2017-08-25T04:31:39.169Z,1011.67
2017-08-25T04:32:51.758Z,1011.72
2017-08-25T04:34:04.018Z,1011.7
2017-08-25T04:35:16.908Z,1011.75
2017-08-25T04:36:29.538Z,1011.76
2017-08-25T04:37:42.101Z,1011.72
2017-08-25T04:38:54.368Z,1011.72
2017-08-25T04:40:06.978Z,1011.8
2017-08-25T04:41:19.287Z,1011.79
2017-08-25T04:42:31.813Z,1011.82
2017-08-25T04:43:44.386Z,1011.87
2017-08-25T04:44:56.659Z,1011.83
2017-08-25T04:46:09.192Z,1011.85
2017-08-25T04:47:21.788Z,1011.86
2017-08-25T04:48:34.390Z,1011.91
2017-08-25T04:49:47.015Z,1011.96
2017-08-25T04:50:59.333Z,1011.92
2017-08-25T04:52:11.909Z,1011.94
2017-08-25T04:53:24.492Z,1011.9
2017-08-25T04:54:37.011Z,1011.93
2017-08-25T04:55:48.925Z,1011.93
2017-08-25T04:57:01.527Z,1011.98
2017-08-25T04:58:14.180Z,1011.92
2017-08-25T04:59:26.494Z,1011.93
2017-08-25T05:00:39.141Z,1011.95
2017-08-25T05:01:51.385Z,1011.95
2017-08-25T05:03:03.911Z,1011.93
2017-08-25T05:04:16.529Z,1011.97
2017-08-25T05:05:29.129Z,1011.97
2017-08-25T05:06:41.368Z,1011.99
2017-08-25T05:07:53.939Z,1012.02
2017-08-25T05:09:06.265Z,1012.04
2017-08-25T05:10:18.830Z,1012.03
2017-08-25T05:11:31.593Z,1012.05
2017-08-25T05:12:58.420Z,1012.07
2017-08-25T05:14:10.697Z,1012.05
2017-08-25T05:15:23.365Z,1012.06
2017-08-25T05:16:35.929Z,1012.08
2017-08-25T05:17:48.515Z,1012.09
2017-08-25T05:18:59.917Z,1012.16
2017-08-25T05:20:12.480Z,1012.13
2017-08-25T05:21:25.046Z,1012.11
2017-08-25T05:22:37.667Z,1012.15
2017-08-25T05:23:50.210Z,1012.17
2017-08-25T05:25:02.506Z,1012.2
2017-08-25T05:26:14.775Z,1012.19
2017-08-25T05:27:27.061Z,1012.19
2017-08-25T05:28:39.328Z,1012.19
2017-08-25T05:29:51.963Z,1012.23
2017-08-25T05:31:04.282Z,1012.22
2017-08-25T05:32:16.502Z,1012.25
2017-08-25T05:33:29.096Z,1012.27
2017-08-25T05:34:41.697Z,1012.28
2017-08-25T05:35:53.943Z,1012.27
2017-08-25T05:37:06.501Z,1012.26
2017-08-25T05:38:18.471Z,1012.24
2017-08-25T05:39:30.751Z,1012.26
2017-08-25T05:40:43.020Z,1012.24
2017-08-25T05:41:55.284Z,1012.27
2017-08-25T05:43:07.836Z,1012.25
2017-08-25T05:44:20.127Z,1012.3
2017-08-25T05:45:32.029Z,1012.35
2017-08-25T05:46:44.575Z,1012.32
2017-08-25T05:47:56.818Z,1012.3
2017-08-25T05:49:09.340Z,1012.28
2017-08-25T05:50:21.261Z,1012.31
2017-08-25T05:51:33.567Z,1012.32
2017-08-25T05:52:46.141Z,1012.29
2017-08-25T05:53:58.428Z,1012.25
2017-08-25T05:55:10.410Z,1012.18
2017-08-25T05:56:22.732Z,1012.17
2017-08-25T05:57:35.029Z,1012.2
2017-08-25T05:58:47.656Z,1012.18
2017-08-25T05:59:59.632Z,1012.22
2017-08-25T06:01:12.146Z,1012.22
2017-08-25T06:02:24.744Z,1012.21
2017-08-25T06:03:36.944Z,1012.16
2017-08-25T06:04:49.488Z,1012.2
2017-08-25T06:06:45.844Z,1012.25
2017-08-25T06:07:58.089Z,1012.24
2017-08-25T06:09:10.674Z,1012.28
2017-08-25T06:10:23.275Z,1012.3
2017-08-25T06:11:35.863Z,1012.3
2017-08-25T06:12:48.091Z,1012.31
2017-08-25T06:14:00.376Z,1012.34
2017-08-25T06:15:12.998Z,1012.35
2017-08-25T06:16:25.295Z,1012.37
2017-08-25T06:17:37.875Z,1012.38
2017-08-25T06:18:50.449Z,1012.33
2017-08-25T06:20:02.428Z,1012.29
2017-08-25T06:21:14.702Z,1012.26
2017-08-25T06:22:26.705Z,1012.23
2017-08-25T06:23:39.307Z,1012.27
2017-08-25T06:24:51.604Z,1012.28
2017-08-25T06:26:03.908Z,1012.36
2017-08-25T06:27:16.202Z,1012.4
2017-08-25T06:28:28.492Z,1012.38
2017-08-25T06:29:41.053Z,1012.42
2017-08-25T06:30:53.656Z,1012.43
2017-08-25T06:32:05.937Z,1012.45
2017-08-25T06:33:18.524Z,1012.51
2017-08-25T06:34:31.127Z,1012.55
2017-08-25T06:35:43.428Z,1012.52
2017-08-25T06:36:55.692Z,1012.49
2017-08-25T06:38:07.712Z,1012.46
2017-08-25T06:39:19.724Z,1012.42
2017-08-25T06:40:32.364Z,1012.49
2017-08-25T06:41:44.979Z,1012.49
2017-08-25T06:42:57.302Z,1012.53
2017-08-25T06:44:09.867Z,1012.57
2017-08-25T06:45:22.123Z,1012.57
2017-08-25T06:46:33.794Z,1012.56
2017-08-25T06:47:46.367Z,1012.63
2017-08-25T06:48:58.374Z,1012.65
2017-08-25T06:50:10.656Z,1012.73
2017-08-25T06:51:23.277Z,1012.8
2017-08-25T06:52:35.219Z,1012.76
2017-08-25T06:53:47.712Z,1012.79
2017-08-25T06:55:00.253Z,1012.83
2017-08-25T06:56:12.573Z,1012.88
2017-08-25T06:57:24.211Z,1012.8
2017-08-25T06:58:36.449Z,1012.78
2017-08-25T06:59:49.096Z,1012.75
2017-08-25T07:01:01.985Z,1012.78
2017-08-25T07:02:14.330Z,1012.81
2017-08-25T07:03:26.546Z,1012.88
2017-08-25T07:04:38.817Z,1012.92
2017-08-25T07:05:51.106Z,1012.92
2017-08-25T07:07:03.664Z,1012.95
2017-08-25T07:08:15.639Z,1012.92
2017-08-25T07:09:28.278Z,1012.91
2017-08-25T07:10:40.553Z,1012.91
2017-08-25T07:11:52.541Z,1012.85
2017-08-25T07:13:04.822Z,1012.83
2017-08-25T07:14:17.409Z,1012.84
2017-08-25T07:15:29.646Z,1012.85
2017-08-25T07:16:41.924Z,1012.83
2017-08-25T07:17:54.181Z,1012.79
2017-08-25T07:19:06.132Z,1012.81
2017-08-25T07:20:18.437Z,1012.82
2017-08-25T07:21:30.742Z,1012.79
2017-08-25T07:22:43.260Z,1012.8
2017-08-25T07:23:55.848Z,1012.85
2017-08-25T07:25:08.112Z,1012.86
2017-08-25T07:26:20.696Z,1012.91
2017-08-25T07:27:33.321Z,1012.93
2017-08-25T07:28:45.287Z,1012.98
2017-08-25T07:29:57.280Z,1012.94
2017-08-25T07:31:09.878Z,1013
2017-08-25T07:32:22.442Z,1012.99
2017-08-25T07:33:35.042Z,1013.03
2017-08-25T07:34:47.336Z,1013.07
2017-08-25T07:35:59.597Z,1013.1
2017-08-25T07:37:11.600Z,1013.13
2017-08-25T07:38:23.875Z,1013.14
2017-08-25T07:39:36.523Z,1013.11
2017-08-25T07:40:48.813Z,1013.04
2017-08-25T07:42:01.394Z,1012.98
2017-08-25T07:43:13.409Z,1012.91
2017-08-25T07:44:25.966Z,1012.89
2017-08-25T07:45:38.611Z,1012.95
2017-08-25T07:46:51.423Z,1012.94
2017-08-25T07:48:04.025Z,1012.94
2017-08-25T07:49:16.674Z,1012.97
2017-08-25T07:50:29.294Z,1013.06
2017-08-25T07:51:40.980Z,1013.08
2017-08-25T07:52:53.277Z,1013.15
2017-08-25T07:54:05.526Z,1013.18
2017-08-25T07:55:18.226Z,1013.15
2017-08-25T07:56:30.834Z,1013.16
2017-08-25T07:57:43.159Z,1013.1
2017-08-25T07:58:55.172Z,1013.1
2017-08-25T08:00:07.792Z,1013.17
2017-08-25T08:01:20.432Z,1013.25
2017-08-25T08:02:32.663Z,1013.23
2017-08-25T08:03:45.293Z,1013.26
2017-08-25T08:04:57.603Z,1013.17
2017-08-25T08:06:10.253Z,1013.19
2017-08-25T08:07:22.840Z,1013.21
2017-08-25T08:08:35.463Z,1013.23
2017-08-25T08:09:47.455Z,1013.19
2017-08-25T08:10:59.832Z,1013.17
2017-08-25T08:12:11.814Z,1013.16
2017-08-25T08:13:24.430Z,1013.22
2017-08-25T08:14:36.715Z,1013.23
2017-08-25T08:15:49.368Z,1013.24
2017-08-25T08:17:01.963Z,1013.29
2017-08-25T08:18:14.203Z,1013.34
2017-08-25T08:19:26.524Z,1013.31
2017-08-25T08:20:38.822Z,1013.2
2017-08-25T08:21:51.413Z,1013.24
2017-08-25T08:23:03.718Z,1013.23
2017-08-25T08:24:16.031Z,1013.26
2017-08-25T08:25:28.636Z,1013.32
2017-08-25T08:26:40.876Z,1013.37
2017-08-25T08:27:53.146Z,1013.37
2017-08-25T08:29:05.399Z,1013.35
2017-08-25T08:30:18.014Z,1013.32
2017-08-25T08:31:30.015Z,1013.33
2017-08-25T08:32:42.352Z,1013.28
2017-08-25T08:33:54.973Z,1013.32
2017-08-25T08:35:07.250Z,1013.35
2017-08-25T08:36:19.824Z,1013.36
2017-08-25T08:37:32.161Z,1013.41
2017-08-25T08:38:45.033Z,1013.39
2017-08-25T08:39:57.290Z,1013.48
2017-08-25T08:41:09.523Z,1013.48
2017-08-25T08:42:22.117Z,1013.54
2017-08-25T08:43:34.716Z,1013.57
2017-08-25T08:44:46.975Z,1013.61
2017-08-25T08:45:59.263Z,1013.55
2017-08-25T08:47:11.873Z,1013.5
2017-08-25T08:48:24.106Z,1013.52
2017-08-25T08:49:36.426Z,1013.54
2017-08-25T08:50:49.047Z,1013.41
2017-08-25T08:52:01.619Z,1013.37
2017-08-25T08:53:14.229Z,1013.32
2017-08-25T08:54:26.503Z,1013.3
2017-08-25T08:55:39.072Z,1013.38
2017-08-25T08:56:51.648Z,1013.41
2017-08-25T08:58:03.689Z,1013.41
2017-08-25T08:59:15.929Z,1013.38
2017-08-25T09:00:28.210Z,1013.32
2017-08-25T09:01:40.835Z,1013.35
2017-08-25T09:02:53.138Z,1013.33
2017-08-25T09:04:05.083Z,1013.39
2017-08-25T09:05:17.035Z,1013.42
2017-08-25T09:06:29.304Z,1013.39
2017-08-25T09:07:41.334Z,1013.45
2017-08-25T09:08:53.895Z,1013.45
2017-08-25T09:10:06.539Z,1013.39
2017-08-25T09:11:18.811Z,1013.36
2017-08-25T09:12:31.452Z,1013.37
2017-08-25T09:13:43.653Z,1013.36
2017-08-25T09:14:55.665Z,1013.42
2017-08-25T09:16:07.935Z,1013.46
2017-08-25T09:17:20.561Z,1013.35
2017-08-25T09:18:33.184Z,1013.35
2017-08-25T09:19:45.459Z,1013.43
2017-08-25T09:20:57.493Z,1013.46
2017-08-25T09:22:09.963Z,1013.31
2017-08-25T09:23:21.943Z,1013.34
2017-08-25T09:24:34.582Z,1013.31
2017-08-25T09:25:47.139Z,1013.28
2017-08-25T09:26:59.382Z,1013.28
2017-08-25T09:28:11.075Z,1013.28
2017-08-25T09:29:23.323Z,1013.34
2017-08-25T09:30:35.968Z,1013.39
2017-08-25T09:31:48.572Z,1013.41
2017-08-25T09:33:00.824Z,1013.4
2017-08-25T09:34:13.131Z,1013.51
2017-08-25T09:35:25.357Z,1013.61
2017-08-25T09:36:37.945Z,1013.54
2017-08-25T09:37:50.496Z,1013.64
2017-08-25T09:39:02.477Z,1013.71
2017-08-25T09:40:14.729Z,1013.61
2017-08-25T09:41:26.728Z,1013.61
2017-08-25T09:42:38.997Z,1013.59
2017-08-25T09:43:51.248Z,1013.64
2017-08-25T09:45:03.556Z,1013.64
2017-08-25T09:46:15.841Z,1013.7
2017-08-25T09:47:28.432Z,1013.69
2017-08-25T09:48:41.034Z,1013.69
2017-08-25T09:49:53.688Z,1013.62
2017-08-25T09:51:05.984Z,1013.6
2017-08-25T09:52:18.262Z,1013.52
2017-08-25T09:53:30.566Z,1013.49
2017-08-25T09:54:42.279Z,1013.48
2017-08-25T09:55:54.550Z,1013.49
2017-08-25T09:57:06.846Z,1013.47
2017-08-25T09:58:18.819Z,1013.43
2017-08-25T09:59:31.063Z,1013.4
2017-08-25T10:00:43.309Z,1013.41
2017-08-25T10:01:55.278Z,1013.38
2017-08-25T10:03:07.291Z,1013.43
2017-08-25T10:04:19.894Z,1013.53
2017-08-25T10:05:32.540Z,1013.64
2017-08-25T10:06:45.171Z,1013.66
2017-08-25T10:07:57.481Z,1013.57
2017-08-25T10:09:09.725Z,1013.47
2017-08-25T10:10:22.609Z,1013.38
2017-08-25T10:11:35.261Z,1013.27
2017-08-25T10:12:47.870Z,1013.27
2017-08-25T10:14:00.187Z,1013.28
2017-08-25T10:15:12.178Z,1013.28
2017-08-25T10:16:24.712Z,1013.42
2017-08-25T10:17:37.326Z,1013.64
2017-08-25T10:18:49.942Z,1013.76
2017-08-25T10:20:02.504Z,1013.73
2017-08-25T10:21:14.786Z,1013.59
2017-08-25T10:22:27.413Z,1013.53
2017-08-25T10:23:40.052Z,1013.48
2017-08-25T10:24:52.636Z,1013.42
2017-08-25T10:26:04.583Z,1013.39
2017-08-25T10:27:17.153Z,1013.39
2017-08-25T10:28:29.398Z,1013.38
2017-08-25T10:29:41.980Z,1013.41
2017-08-25T10:30:54.597Z,1013.34
2017-08-25T10:32:07.155Z,1013.3
2017-08-25T10:33:19.441Z,1013.32
2017-08-25T10:34:32.101Z,1013.38
2017-08-25T10:35:44.080Z,1013.39
2017-08-25T10:36:56.707Z,1013.37
2017-08-25T10:38:08.908Z,1013.28
2017-08-25T10:39:20.874Z,1013.27
2017-08-25T10:40:33.174Z,1013.49
2017-08-25T10:41:45.765Z,1013.62
2017-08-25T10:42:57.715Z,1013.69
2017-08-25T10:44:10.354Z,1013.72
2017-08-25T10:45:22.021Z,1013.71
2017-08-25T10:46:34.295Z,1013.6
2017-08-25T10:47:47.217Z,1013.46
2017-08-25T10:48:59.831Z,1013.4
2017-08-25T10:50:12.129Z,1013.34
2017-08-25T10:51:24.398Z,1013.39
2017-08-25T10:52:36.986Z,1013.27
2017-08-25T10:53:49.564Z,1013.27
2017-08-25T10:55:01.785Z,1013.41
2017-08-25T10:56:14.374Z,1013.3
2017-08-25T10:57:26.627Z,1013.28
2017-08-25T10:58:39.189Z,1013.33
2017-08-25T11:00:20.728Z,1013.35
2017-08-25T11:01:32.995Z,1013.26
2017-08-25T11:02:45.313Z,1013.38
2017-08-25T11:03:57.934Z,1013.45
2017-08-25T11:05:10.198Z,1013.42
2017-08-25T11:06:22.843Z,1013.39
2017-08-25T11:07:34.774Z,1013.44
2017-08-25T11:08:47.354Z,1013.48
2017-08-25T11:09:59.942Z,1013.34
2017-08-25T11:11:12.551Z,1013.41
2017-08-25T11:12:25.152Z,1013.35
2017-08-25T11:13:37.469Z,1013.36
2017-08-25T11:14:49.731Z,1013.35
2017-08-25T11:16:02.064Z,1013.36
2017-08-25T11:17:14.362Z,1013.13
2017-08-25T11:18:26.951Z,1013.06
2017-08-25T11:19:39.247Z,1013.13
2017-08-25T11:20:51.270Z,1013.18
2017-08-25T11:22:03.530Z,1013.23
2017-08-25T11:23:16.109Z,1013.22
2017-08-25T11:24:28.368Z,1013.28
2017-08-25T11:25:40.725Z,1013.24
2017-08-25T11:26:52.939Z,1013.14
2017-08-25T11:28:05.208Z,1013.2
2017-08-25T11:29:17.786Z,1013.29
2017-08-25T11:30:30.063Z,1013.22
2017-08-25T11:31:42.728Z,1013.11
2017-08-25T11:32:54.698Z,1013.12
2017-08-25T11:34:06.676Z,1013.1
2017-08-25T11:35:19.034Z,1013.1
2017-08-25T11:36:31.621Z,1013.06
2017-08-25T11:37:43.940Z,1013.12
2017-08-25T11:38:56.252Z,1013.1
2017-08-25T11:40:08.171Z,1013.07
2017-08-25T11:41:20.460Z,1013.1
2017-08-25T11:42:33.095Z,1013.27
2017-08-25T11:43:45.691Z,1013.32
2017-08-25T11:44:57.954Z,1013.36
2017-08-25T11:46:09.900Z,1013.15
2017-08-25T11:47:22.169Z,1013.09
2017-08-25T11:48:34.778Z,1013.07
2017-08-25T11:49:47.046Z,1013.15
2017-08-25T11:50:59.658Z,1013.29
2017-08-25T11:52:12.252Z,1013.35
2017-08-25T11:53:24.216Z,1013.29
2017-08-25T11:54:36.188Z,1013.26
2017-08-25T11:55:48.769Z,1013.38
2017-08-25T11:57:01.135Z,1013.33
2017-08-25T11:58:13.757Z,1013.19
2017-08-25T11:59:25.726Z,1013.17
2017-08-25T12:00:37.652Z,1013.09
2017-08-25T12:01:49.875Z,1013.17
2017-08-25T12:03:02.480Z,1013.08
2017-08-25T12:04:14.811Z,1013.19
2017-08-25T12:05:27.519Z,1013.21
2017-08-25T12:06:40.145Z,1013.17
2017-08-25T12:07:52.772Z,1013.14
2017-08-25T12:09:05.018Z,1013.13
2017-08-25T12:10:17.032Z,1013.11
2017-08-25T12:11:29.362Z,1013.18
2017-08-25T12:12:41.630Z,1013.11
2017-08-25T12:13:53.961Z,1013.1
2017-08-25T12:15:06.601Z,1013.13
2017-08-25T12:16:19.190Z,1013.13
2017-08-25T12:17:31.821Z,1013.09
2017-08-25T12:18:43.786Z,1013.24
2017-08-25T12:19:56.305Z,1013.37
2017-08-25T12:21:08.867Z,1013.51
2017-08-25T12:22:20.841Z,1013.4
2017-08-25T12:23:33.108Z,1013.5
2017-08-25T12:24:45.360Z,1013.36
2017-08-25T12:25:57.993Z,1013.36
2017-08-25T12:27:10.639Z,1013.2
2017-08-25T12:28:22.955Z,1013.45
2017-08-25T12:29:35.278Z,1013.35
2017-08-25T12:30:46.976Z,1013.28
2017-08-25T12:31:59.253Z,1013.19
2017-08-25T12:33:11.256Z,1013.22
2017-08-25T12:34:23.494Z,1013.17
2017-08-25T12:35:36.135Z,1013.18
2017-08-25T12:36:48.768Z,1013.16
2017-08-25T12:38:01.091Z,1013.05
2017-08-25T12:39:13.720Z,1013.19
2017-08-25T12:40:26.397Z,1013.2
2017-08-25T12:41:38.686Z,1013.18
2017-08-25T12:42:51.002Z,1013.13
2017-08-25T12:44:03.327Z,1013.26
2017-08-25T12:45:15.651Z,1013.22
2017-08-25T12:46:28.326Z,1013.22
2017-08-25T12:47:40.596Z,1013.27
2017-08-25T12:48:52.853Z,1013.3
2017-08-25T12:50:04.845Z,1013.26
2017-08-25T12:51:17.466Z,1013.24
2017-08-25T12:52:30.111Z,1013.25
2017-08-25T12:53:42.747Z,1013.27
2017-08-25T12:54:55.384Z,1013.21
2017-08-25T12:56:07.672Z,1013.26
2017-08-25T12:57:19.599Z,1013.18
2017-08-25T12:58:31.649Z,1013.18
2017-08-25T12:59:43.945Z,1013.21
2017-08-25T13:00:55.929Z,1013.29
2017-08-25T13:02:08.200Z,1013.3
2017-08-25T13:03:20.473Z,1013.3
2017-08-25T13:04:32.831Z,1013.25
2017-08-25T13:05:45.108Z,1013.18
2017-08-25T13:06:57.726Z,1013.21
2017-08-25T13:08:09.679Z,1013.24
2017-08-25T13:09:22.011Z,1013.21
2017-08-25T13:10:34.295Z,1013.22
2017-08-25T13:11:46.547Z,1013.32
2017-08-25T13:12:58.549Z,1013.24
2017-08-25T13:14:11.207Z,1013.19
2017-08-25T13:15:23.187Z,1013.17
2017-08-25T13:16:35.449Z,1013.21
2017-08-25T13:17:48.026Z,1013.22
2017-08-25T13:19:00.590Z,1013.22
2017-08-25T13:20:13.165Z,1013.19
2017-08-25T13:21:25.781Z,1013.28
2017-08-25T13:22:38.444Z,1013.34
2017-08-25T13:23:50.697Z,1013.22
2017-08-25T13:25:02.995Z,1013.12
2017-08-25T13:26:15.239Z,1013.16
2017-08-25T13:27:27.510Z,1013.18
2017-08-25T13:28:39.799Z,1013.17
2017-08-25T13:29:52.400Z,1013.17
2017-08-25T13:31:05.049Z,1013.16
2017-08-25T13:32:17.623Z,1013.23
2017-08-25T13:33:30.255Z,1013.22
2017-08-25T13:34:42.800Z,1013.25
2017-08-25T13:35:55.449Z,1013.28
2017-08-25T13:37:08.065Z,1013.18
2017-08-25T13:38:20.623Z,1013.11
2017-08-25T13:39:32.890Z,1013.06
2017-08-25T13:40:45.492Z,1013.05
2017-08-25T13:41:58.359Z,1013.03
2017-08-25T13:43:10.653Z,1013.05
2017-08-25T13:44:23.229Z,1013.02
2017-08-25T13:45:35.144Z,1013.06
2017-08-25T13:46:47.676Z,1013.1
2017-08-25T13:47:59.917Z,1013.05
2017-08-25T13:49:12.217Z,1013.08
2017-08-25T13:50:24.551Z,1013.09
2017-08-25T13:51:36.797Z,1013.13
2017-08-25T13:52:49.024Z,1013.13
2017-08-25T13:54:01.331Z,1013.1
2017-08-25T13:55:13.886Z,1013.13
2017-08-25T13:56:26.478Z,1013.08
2017-08-25T13:57:38.487Z,1013.16
2017-08-25T13:58:50.799Z,1013.11
2017-08-25T14:00:03.092Z,1013.15
2017-08-25T14:01:15.355Z,1013.12
2017-08-25T14:02:27.634Z,1013.13
2017-08-25T14:03:40.229Z,1013.14
2017-08-25T14:04:52.480Z,1013.16
2017-08-25T14:06:05.122Z,1013.13
2017-08-25T14:07:17.383Z,1013.1
2017-08-25T14:08:29.936Z,1013.07
2017-08-25T14:09:42.234Z,1013.07
2017-08-25T14:10:54.138Z,1013.09
2017-08-25T14:12:06.078Z,1013.07
2017-08-25T14:13:18.075Z,1013.03
2017-08-25T14:14:30.667Z,1013.07
2017-08-25T14:15:43.241Z,1013.02
2017-08-25T14:16:55.249Z,1012.99
2017-08-25T14:18:07.182Z,1013
2017-08-25T14:19:19.466Z,1013.04
2017-08-25T14:20:31.735Z,1013.06
2017-08-25T14:21:44.045Z,1012.98
2017-08-25T14:22:56.026Z,1012.95
2017-08-25T14:24:07.930Z,1012.98
2017-08-25T14:25:20.512Z,1012.96
2017-08-25T14:26:33.128Z,1012.98
2017-08-25T14:27:45.406Z,1012.94
2017-08-25T14:28:57.719Z,1012.92
2017-08-25T14:30:09.646Z,1012.93
2017-08-25T14:31:21.328Z,1012.96
2017-08-25T14:32:33.957Z,1012.95
2017-08-25T14:33:46.555Z,1012.97
2017-08-25T14:34:58.547Z,1012.91
2017-08-25T14:36:10.910Z,1012.94
2017-08-25T14:37:23.510Z,1012.93
2017-08-25T14:38:35.829Z,1012.88
2017-08-25T14:39:48.401Z,1012.96
2017-08-25T14:41:00.950Z,1012.93
2017-08-25T14:42:13.544Z,1012.92
2017-08-25T14:43:26.111Z,1012.91